Hamlet, Indiana
Current Conditions -  °F | °C
As of 10:55 PM on Saturday 22 Nov 2014 (Local Time) from KOXI Reporting Station
Overcast Overcast  
Wind Chill: 44°   Ceiling: 2800
Heat Index: 49°   Visibility: 10mi
Dew Point: 43°   Wind: 13mph
Humidity: 81%   Direction: 190°S
Pressure: 29.91"   Gusts: NA
Location:  41.38°N, 86.58°W
Report Text: KOXI 230455Z AUTO 19011KT 10SM OVC028 09/06 A2991 RMK AO1 T00930062
Loading
Personal Weather Stations






























Interactive Weather Map New forecast layout! Learn more

10-Day Weather Forecast

Advertisements
Track Severe Weather on mobile